Terminal Aerodrome Forecast
Issued by NWS Omaha/Valley, NE

Home | Current Version | Previous Version | Graphics & Text | Print | Product List | Glossary On
Versions: 1 2 3 4 5 6 7 8 9 10 11 12 13 14 15 16 17 18 19 20 21
000
FTUS43 KOAX 230806 AAA
TAFOFK
TAF AMD
KOFK 230806Z 2308/2406 19019G26KT 6SM -TSRA OVC025CB
      TEMPO 2308/2310 VRB20G30KT 3SM TSRA OVC015CB
     FM231400 18010KT 6SM BR OVC015
     FM231600 21010KT P6SM OVC025
     FM240000 17008KT P6SM OVC050=

USA.gov is the U.S. government's official web portal to all federal, state and local government web resources and services.